createdAt,value
2018-12-17T00:00:04.008Z,76.40
2018-12-17T00:02:32.424Z,76.40
2018-12-17T00:05:00.901Z,76.30
2018-12-17T00:07:29.362Z,75.90
2018-12-17T00:09:57.815Z,76.00
2018-12-17T00:12:26.243Z,75.60
2018-12-17T00:14:54.698Z,75.70
2018-12-17T00:17:23.197Z,75.60
2018-12-17T00:19:51.659Z,75.50
2018-12-17T00:22:20.155Z,75.50
2018-12-17T00:24:48.575Z,75.40
2018-12-17T00:27:17.075Z,75.50
2018-12-17T00:29:45.491Z,75.80
2018-12-17T00:32:13.955Z,75.80
2018-12-17T00:34:42.366Z,76.70
2018-12-17T00:37:10.867Z,75.70
2018-12-17T00:39:39.355Z,75.80
2018-12-17T00:42:07.780Z,75.70
2018-12-17T00:44:36.247Z,76.40
2018-12-17T00:47:04.699Z,75.90
2018-12-17T00:49:33.123Z,75.50
2018-12-17T00:52:01.588Z,75.20
2018-12-17T00:54:30.000Z,73.30
2018-12-17T00:56:58.610Z,72.90
2018-12-17T00:59:27.064Z,72.30
2018-12-17T01:01:55.542Z,71.80
2018-12-17T01:04:23.955Z,71.90
2018-12-17T01:06:52.419Z,72.70
2018-12-17T01:09:20.875Z,72.90
2018-12-17T01:11:49.281Z,73.30
2018-12-17T01:14:17.731Z,73.60
2018-12-17T01:16:46.284Z,73.40
2018-12-17T01:19:14.831Z,73.70
2018-12-17T01:21:44.098Z,73.80
2018-12-17T01:24:12.639Z,72.50
2018-12-17T01:26:41.155Z,71.60
2018-12-17T01:29:09.644Z,71.90
2018-12-17T01:31:38.057Z,73.20
2018-12-17T01:34:06.506Z,73.90
2018-12-17T01:36:34.924Z,73.70
2018-12-17T01:39:04.391Z,74.40
2018-12-17T01:41:32.879Z,73.20
2018-12-17T01:44:01.364Z,73.20
2018-12-17T01:46:29.898Z,72.90
2018-12-17T01:48:58.311Z,73.40
2018-12-17T01:51:26.784Z,73.40
2018-12-17T01:53:55.239Z,73.40
2018-12-17T01:56:23.658Z,72.60
2018-12-17T01:58:52.167Z,72.70
2018-12-17T02:01:20.641Z,73.20
2018-12-17T02:03:49.131Z,73.30
2018-12-17T02:06:17.855Z,73.90
2018-12-17T02:08:46.313Z,74.50
2018-12-17T02:11:14.743Z,74.50
2018-12-17T02:13:43.331Z,74.70
2018-12-17T02:16:11.759Z,74.60
2018-12-17T02:18:40.270Z,75.60
2018-12-17T02:21:08.698Z,75.70
2018-12-17T02:23:37.151Z,76.40
2018-12-17T02:26:05.615Z,75.70
2018-12-17T02:28:36.314Z,75.30
2018-12-17T02:31:04.579Z,75.60
2018-12-17T02:33:32.998Z,76.10
2018-12-17T02:36:01.563Z,76.50
2018-12-17T02:38:30.014Z,76.60
2018-12-17T02:40:58.467Z,77.20
2018-12-17T02:43:26.912Z,77.80
2018-12-17T02:45:55.323Z,77.80
2018-12-17T02:48:23.792Z,77.90
2018-12-17T02:50:52.260Z,77.70
2018-12-17T02:53:20.719Z,78.00
2018-12-17T02:55:49.132Z,78.10
2018-12-17T02:58:17.589Z,78.10
2018-12-17T03:00:46.159Z,78.00
2018-12-17T03:03:14.804Z,78.20
2018-12-17T03:05:43.233Z,78.60
2018-12-17T03:08:11.675Z,78.70
2018-12-17T03:10:40.221Z,79.10
2018-12-17T03:13:08.708Z,80.00
2018-12-17T03:15:37.143Z,80.00
2018-12-17T03:18:05.611Z,80.20
2018-12-17T03:20:34.102Z,80.40
2018-12-17T03:23:02.566Z,80.20
2018-12-17T03:25:30.982Z,79.80
2018-12-17T03:27:59.400Z,80.90
2018-12-17T03:30:27.829Z,80.60
2018-12-17T03:32:56.305Z,80.50
2018-12-17T03:35:24.884Z,80.60
2018-12-17T03:37:53.326Z,80.50
2018-12-17T03:40:21.872Z,80.30
2018-12-17T03:42:50.283Z,80.50
2018-12-17T03:45:18.754Z,80.40
2018-12-17T03:47:47.194Z,80.40
2018-12-17T03:50:15.687Z,80.20
2018-12-17T03:52:44.140Z,80.20
2018-12-17T03:55:12.580Z,80.20
2018-12-17T03:57:40.995Z,80.30
2018-12-17T04:00:09.571Z,80.50
2018-12-17T04:02:38.018Z,80.70
2018-12-17T04:05:07.035Z,80.90
2018-12-17T04:07:35.474Z,80.80
2018-12-17T04:10:04.587Z,81.00
2018-12-17T04:12:34.116Z,80.80
2018-12-17T04:15:02.543Z,81.00
2018-12-17T04:17:31.015Z,81.60
2018-12-17T04:19:59.461Z,80.80
2018-12-17T04:22:27.919Z,80.80
2018-12-17T04:24:56.334Z,80.80
2018-12-17T04:27:24.788Z,80.80
2018-12-17T04:29:53.335Z,80.60
2018-12-17T04:32:21.759Z,80.60
2018-12-17T04:34:50.224Z,80.40
2018-12-17T04:37:18.693Z,80.60
2018-12-17T04:39:47.119Z,80.30
2018-12-17T04:42:15.622Z,80.00
2018-12-17T04:44:44.055Z,80.00
2018-12-17T04:47:12.507Z,80.00
2018-12-17T04:49:40.993Z,80.00
2018-12-17T04:52:09.483Z,79.90
2018-12-17T04:54:37.997Z,80.20
2018-12-17T04:57:06.527Z,80.10
2018-12-17T04:59:34.976Z,80.40
2018-12-17T05:02:03.445Z,80.70
2018-12-17T05:04:31.924Z,81.00
2018-12-17T05:07:00.347Z,80.80
2018-12-17T05:09:28.807Z,80.60
2018-12-17T05:11:57.248Z,80.70
2018-12-17T05:14:25.858Z,80.70
2018-12-17T05:16:54.293Z,80.70
2018-12-17T05:19:22.739Z,81.00
2018-12-17T05:21:51.205Z,81.10
2018-12-17T05:24:19.671Z,81.10
2018-12-17T05:26:48.124Z,81.10
2018-12-17T05:29:21.570Z,81.10
2018-12-17T05:31:47.008Z,81.00
2018-12-17T05:34:15.455Z,80.90
2018-12-17T05:36:43.947Z,80.80
2018-12-17T05:39:12.498Z,80.90
2018-12-17T05:41:40.920Z,80.70
2018-12-17T05:44:09.336Z,81.00
2018-12-17T05:46:37.780Z,80.60
2018-12-17T05:49:06.180Z,80.60
2018-12-17T05:51:34.673Z,80.60
2018-12-17T05:54:03.105Z,80.60
2018-12-17T05:56:31.551Z,80.60
2018-12-17T05:59:00.030Z,80.60
2018-12-17T06:01:28.450Z,80.70
2018-12-17T06:03:57.972Z,80.60
2018-12-17T06:06:26.388Z,80.60
2018-12-17T06:08:54.854Z,80.80
2018-12-17T06:11:23.280Z,80.70
2018-12-17T06:13:52.440Z,80.80
2018-12-17T06:16:20.863Z,81.00
2018-12-17T06:18:49.378Z,80.90
2018-12-17T06:21:17.823Z,80.90
2018-12-17T06:23:46.267Z,80.90
2018-12-17T06:26:14.692Z,80.90
2018-12-17T06:28:43.163Z,80.80
2018-12-17T06:31:18.020Z,80.70
2018-12-17T06:33:46.664Z,80.60
2018-12-17T06:36:15.082Z,80.80
2018-12-17T06:38:43.553Z,80.80
2018-12-17T06:41:11.997Z,80.90
2018-12-17T06:43:40.431Z,81.00
2018-12-17T06:46:08.883Z,81.00
2018-12-17T06:48:37.328Z,81.00
2018-12-17T06:51:05.784Z,81.00
2018-12-17T06:53:34.210Z,81.10
2018-12-17T06:56:02.703Z,81.00
2018-12-17T06:58:31.500Z,80.90
2018-12-17T07:01:00.071Z,80.90
2018-12-17T07:03:28.575Z,80.90
2018-12-17T07:05:56.987Z,80.90
2018-12-17T07:08:25.441Z,80.70
2018-12-17T07:10:53.867Z,80.60
2018-12-17T07:13:22.319Z,80.40
2018-12-17T07:15:50.748Z,80.50
2018-12-17T07:18:19.191Z,80.40
2018-12-17T07:20:47.630Z,81.40
2018-12-17T07:23:16.079Z,80.50
2018-12-17T07:25:44.564Z,80.50
2018-12-17T07:28:12.988Z,80.90
2018-12-17T07:30:41.416Z,80.90
2018-12-17T07:33:09.871Z,80.30
2018-12-17T07:35:38.299Z,80.30
2018-12-17T07:38:06.750Z,80.00
2018-12-17T07:40:35.347Z,80.00
2018-12-17T07:43:03.840Z,79.80
2018-12-17T07:45:32.395Z,79.80
2018-12-17T07:48:00.831Z,80.00
2018-12-17T07:50:29.285Z,79.50
2018-12-17T07:52:57.745Z,79.30
2018-12-17T07:55:26.167Z,79.40
2018-12-17T07:57:54.630Z,79.20
2018-12-17T08:00:23.037Z,79.10
2018-12-17T08:02:51.501Z,79.20
2018-12-17T08:05:19.934Z,79.00
2018-12-17T08:07:48.384Z,79.00
2018-12-17T08:10:16.835Z,78.90
2018-12-17T08:12:45.370Z,78.80
2018-12-17T08:15:13.803Z,78.70
2018-12-17T08:17:42.394Z,78.70
2018-12-17T08:20:10.923Z,78.40
2018-12-17T08:22:40.386Z,78.60
2018-12-17T08:25:09.729Z,78.30
2018-12-17T08:27:38.894Z,78.50
2018-12-17T08:30:08.027Z,78.50
2018-12-17T08:32:36.504Z,78.30
2018-12-17T08:35:05.203Z,78.00
2018-12-17T08:37:33.702Z,78.00
2018-12-17T08:40:02.231Z,77.70
2018-12-17T08:42:31.251Z,77.60
2018-12-17T08:44:59.697Z,77.50
2018-12-17T08:47:28.111Z,77.00
2018-12-17T08:49:56.722Z,77.00
2018-12-17T08:52:25.146Z,77.10
2018-12-17T08:54:54.472Z,77.90
2018-12-17T08:57:23.129Z,77.10
2018-12-17T08:59:51.545Z,77.20
2018-12-17T09:02:20.008Z,77.00
2018-12-17T09:04:48.419Z,76.80
2018-12-17T09:07:16.856Z,76.30
2018-12-17T09:09:45.320Z,76.00
2018-12-17T09:12:13.760Z,75.90
2018-12-17T09:14:42.169Z,76.80
2018-12-17T09:17:10.704Z,75.80
2018-12-17T09:19:39.820Z,75.60
2018-12-17T09:22:08.252Z,75.20
2018-12-17T09:24:36.922Z,75.10
2018-12-17T09:27:05.520Z,74.80
2018-12-17T09:29:34.186Z,74.50
2018-12-17T09:32:02.638Z,74.60
2018-12-17T09:34:31.092Z,74.30
2018-12-17T09:36:59.557Z,74.80
2018-12-17T09:39:28.076Z,74.60
2018-12-17T09:41:56.685Z,74.40
2018-12-17T09:44:25.104Z,74.60
2018-12-17T09:46:53.523Z,74.40
2018-12-17T09:49:22.500Z,74.20
2018-12-17T09:51:50.939Z,73.70
2018-12-17T09:54:19.639Z,73.40
2018-12-17T09:56:48.127Z,73.30
2018-12-17T09:59:16.591Z,73.30
2018-12-17T10:01:47.081Z,73.50
2018-12-17T10:04:15.624Z,72.70
2018-12-17T10:06:44.196Z,72.60
2018-12-17T10:09:12.675Z,72.80
2018-12-17T10:11:41.152Z,72.80
2018-12-17T10:14:09.591Z,72.60
2018-12-17T10:16:38.020Z,72.70
2018-12-17T10:19:06.517Z,72.40
2018-12-17T10:21:35.249Z,72.30
2018-12-17T10:24:04.023Z,72.30
2018-12-17T10:26:32.569Z,72.20
2018-12-17T10:29:00.979Z,71.90
2018-12-17T10:31:29.435Z,71.30
2018-12-17T10:33:57.923Z,71.60
2018-12-17T10:36:26.386Z,71.20
2018-12-17T10:38:55.396Z,71.10
2018-12-17T10:41:24.168Z,71.20
2018-12-17T10:43:52.611Z,70.70
2018-12-17T10:46:21.117Z,70.90
2018-12-17T10:48:49.563Z,70.50
2018-12-17T10:51:18.056Z,70.20
2018-12-17T10:53:46.499Z,69.80
2018-12-17T10:56:14.939Z,69.30
2018-12-17T10:58:43.393Z,69.50
2018-12-17T11:01:17.423Z,69.50
2018-12-17T11:03:53.031Z,70.30
2018-12-17T11:06:22.922Z,70.80
2018-12-17T11:08:52.448Z,71.00
2018-12-17T11:11:20.854Z,69.80
2018-12-17T11:13:49.292Z,69.90
2018-12-17T11:16:18.047Z,70.00
2018-12-17T11:18:47.488Z,69.60
2018-12-17T11:21:16.177Z,69.70
2018-12-17T11:23:44.615Z,69.70
2018-12-17T11:26:13.023Z,69.70
2018-12-17T11:28:41.514Z,69.50
2018-12-17T11:31:09.964Z,69.00
2018-12-17T11:33:38.387Z,69.10
2018-12-17T11:36:06.867Z,69.40
2018-12-17T11:38:35.328Z,69.40
2018-12-17T11:41:03.954Z,69.50
2018-12-17T11:43:32.409Z,69.30
2018-12-17T11:46:02.861Z,69.20
2018-12-17T11:48:31.445Z,69.70
2018-12-17T11:50:59.912Z,70.20
2018-12-17T11:53:28.358Z,69.80
2018-12-17T11:55:56.787Z,70.10
2018-12-17T11:58:25.236Z,70.10
2018-12-17T12:01:01.823Z,70.40
2018-12-17T12:03:30.896Z,70.70
2018-12-17T12:05:59.354Z,70.70
2018-12-17T12:08:27.835Z,70.70
2018-12-17T12:10:56.908Z,70.40
2018-12-17T12:13:25.348Z,70.80
2018-12-17T12:15:53.828Z,71.70
2018-12-17T12:18:22.413Z,71.40
2018-12-17T12:20:51.163Z,71.60
2018-12-17T12:23:19.696Z,72.20
2018-12-17T12:25:48.160Z,72.40
2018-12-17T12:28:16.600Z,73.40
2018-12-17T12:30:45.062Z,72.50
2018-12-17T12:33:13.557Z,73.40
2018-12-17T12:35:42.044Z,73.40
2018-12-17T12:38:10.633Z,73.70
2018-12-17T12:40:39.073Z,73.60
2018-12-17T12:43:07.591Z,73.50
2018-12-17T12:45:36.031Z,73.90
2018-12-17T12:48:04.655Z,73.30
2018-12-17T12:50:33.117Z,73.40
2018-12-17T12:53:01.539Z,73.80
2018-12-17T12:55:29.951Z,72.80
2018-12-17T12:58:03.634Z,72.70
2018-12-17T13:00:29.041Z,73.10
2018-12-17T13:02:57.492Z,73.10
2018-12-17T13:05:25.925Z,74.30
2018-12-17T13:07:54.408Z,74.40
2018-12-17T13:10:22.831Z,74.10
2018-12-17T13:12:51.235Z,74.40
2018-12-17T13:15:19.687Z,74.10
2018-12-17T13:17:48.207Z,74.50
2018-12-17T13:20:16.803Z,74.20
2018-12-17T13:22:45.236Z,74.10
2018-12-17T13:25:18.707Z,74.20
2018-12-17T13:27:47.229Z,74.00
2018-12-17T13:30:15.723Z,73.70
2018-12-17T13:32:44.291Z,73.60
2018-12-17T13:35:12.935Z,73.70
2018-12-17T13:37:41.798Z,74.10
2018-12-17T13:40:11.203Z,74.10
2018-12-17T13:42:39.727Z,74.50
2018-12-17T13:45:08.445Z,74.40
2018-12-17T13:47:38.418Z,74.40
2018-12-17T13:50:12.752Z,74.50
2018-12-17T13:52:46.905Z,74.50
2018-12-17T13:55:15.941Z,74.80
2018-12-17T13:57:44.456Z,74.90
2018-12-17T14:00:13.767Z,74.80
2018-12-17T14:02:42.422Z,74.70
2018-12-17T14:05:11.345Z,74.90
2018-12-17T14:07:40.303Z,75.60
2018-12-17T14:10:16.034Z,76.30
2018-12-17T14:12:44.642Z,76.20
2018-12-17T14:15:13.435Z,76.90
2018-12-17T14:17:46.139Z,76.40
2018-12-17T14:20:19.948Z,77.10
2018-12-17T14:22:48.511Z,77.50
2018-12-17T14:25:17.028Z,77.80
2018-12-17T14:27:45.529Z,77.70
2018-12-17T14:30:14.140Z,77.50
2018-12-17T14:32:42.633Z,77.50
2018-12-17T14:35:11.270Z,77.40
2018-12-17T14:38:12.207Z,77.60
2018-12-17T14:40:40.629Z,77.90
2018-12-17T14:43:09.090Z,78.30
2018-12-17T14:45:37.615Z,78.40
2018-12-17T14:48:06.221Z,78.80
2018-12-17T14:50:34.771Z,79.50
2018-12-17T14:53:03.355Z,79.80
2018-12-17T14:55:31.874Z,79.80
2018-12-17T14:58:00.639Z,80.00
2018-12-17T15:00:29.107Z,80.00
2018-12-17T15:02:57.803Z,80.20
2018-12-17T15:05:26.580Z,80.70
2018-12-17T15:07:56.596Z,80.90
2018-12-17T15:10:26.152Z,80.90
2018-12-17T15:12:54.587Z,80.90
2018-12-17T15:15:23.100Z,81.40
2018-12-17T15:17:51.633Z,82.00
2018-12-17T15:20:20.278Z,82.80
2018-12-17T15:22:48.786Z,82.70
2018-12-17T15:25:17.277Z,82.80
2018-12-17T15:27:45.957Z,83.00
2018-12-17T15:30:14.477Z,82.80
2018-12-17T15:32:42.974Z,82.70
2018-12-17T15:35:11.535Z,82.40
2018-12-17T15:37:40.087Z,82.40
2018-12-17T15:40:08.616Z,82.30
2018-12-17T15:42:40.840Z,82.50
2018-12-17T15:45:08.043Z,82.40
2018-12-17T15:47:36.579Z,82.50
2018-12-17T15:50:05.855Z,82.70
2018-12-17T15:52:34.393Z,82.70
2018-12-17T15:55:02.886Z,82.80
2018-12-17T15:57:31.459Z,82.80
2018-12-17T15:59:59.960Z,83.00
2018-12-17T16:02:28.510Z,83.00
2018-12-17T16:04:57.040Z,83.10
2018-12-17T16:07:25.533Z,83.00
2018-12-17T16:09:56.328Z,83.10
2018-12-17T16:12:25.109Z,83.20
2018-12-17T16:14:53.635Z,83.10
2018-12-17T16:17:22.105Z,83.00
2018-12-17T16:19:50.602Z,83.00
2018-12-17T16:22:19.136Z,83.10
2018-12-17T16:24:47.603Z,83.40
2018-12-17T16:27:19.249Z,83.30
2018-12-17T16:29:46.567Z,83.40
2018-12-17T16:32:15.031Z,83.40
2018-12-17T16:34:43.523Z,83.20
2018-12-17T16:37:11.943Z,83.10
2018-12-17T16:39:40.526Z,83.30
2018-12-17T16:42:09.007Z,83.60
2018-12-17T16:44:37.605Z,83.40
2018-12-17T16:47:06.157Z,83.20
2018-12-17T16:49:34.743Z,83.30
2018-12-17T16:52:03.195Z,83.70
2018-12-17T16:54:31.681Z,83.70
2018-12-17T16:57:00.131Z,83.70
2018-12-17T16:59:28.551Z,83.80
2018-12-17T17:01:57.007Z,84.00
2018-12-17T17:04:25.496Z,84.10
2018-12-17T17:06:53.938Z,84.10
2018-12-17T17:09:22.608Z,84.40
2018-12-17T17:11:51.075Z,83.90
2018-12-17T17:14:19.572Z,83.90
2018-12-17T17:16:48.277Z,84.00
2018-12-17T17:19:16.967Z,84.00
2018-12-17T17:21:45.791Z,84.30
2018-12-17T17:24:14.340Z,84.70
2018-12-17T17:26:42.826Z,84.80
2018-12-17T17:29:11.304Z,84.90
2018-12-17T17:31:39.783Z,85.10
2018-12-17T17:34:08.220Z,85.10
2018-12-17T17:36:36.629Z,85.10
2018-12-17T17:39:07.982Z,85.00
2018-12-17T17:41:36.403Z,84.90
2018-12-17T17:44:05.127Z,84.80
2018-12-17T17:46:33.535Z,84.90
2018-12-17T17:49:02.000Z,84.90
2018-12-17T17:51:30.423Z,84.80
2018-12-17T17:53:58.871Z,84.90
2018-12-17T17:56:27.364Z,84.90
2018-12-17T17:58:55.846Z,84.80
2018-12-17T18:01:24.291Z,84.70
2018-12-17T18:03:52.775Z,84.40
2018-12-17T18:06:21.215Z,84.40
2018-12-17T18:08:49.707Z,84.20
2018-12-17T18:11:18.153Z,84.20
2018-12-17T18:13:46.811Z,83.90
2018-12-17T18:16:15.233Z,83.90
2018-12-17T18:18:43.764Z,83.60
2018-12-17T18:21:12.231Z,83.60
2018-12-17T18:23:40.659Z,83.80
2018-12-17T18:26:09.132Z,83.80
2018-12-17T18:28:37.572Z,83.90
2018-12-17T18:31:05.987Z,83.90
2018-12-17T18:33:34.439Z,83.90
2018-12-17T18:36:03.019Z,83.60
2018-12-17T18:38:31.453Z,83.60
2018-12-17T18:41:01.096Z,84.60
2018-12-17T18:43:29.558Z,83.60
2018-12-17T18:45:58.047Z,83.60
2018-12-17T18:48:26.495Z,83.60
2018-12-17T18:50:54.908Z,83.60
2018-12-17T18:53:23.720Z,83.40
2018-12-17T18:55:52.143Z,83.10
2018-12-17T18:58:20.591Z,82.90
2018-12-17T19:00:49.047Z,82.80
2018-12-17T19:03:17.560Z,83.00
2018-12-17T19:05:45.968Z,83.10
2018-12-17T19:08:14.419Z,83.30
2018-12-17T19:10:48.415Z,83.40
2018-12-17T19:13:16.819Z,83.50
2018-12-17T19:15:45.292Z,83.20
2018-12-17T19:18:13.719Z,83.50
2018-12-17T19:20:42.173Z,83.60
2018-12-17T19:23:10.650Z,83.60
2018-12-17T19:25:39.168Z,83.70
2018-12-17T19:28:07.823Z,83.70
2018-12-17T19:30:36.292Z,83.60
2018-12-17T19:33:04.887Z,83.70
2018-12-17T19:35:33.423Z,83.90
2018-12-17T19:38:01.871Z,84.00
2018-12-17T19:40:30.448Z,84.10
2018-12-17T19:42:59.111Z,83.90
2018-12-17T19:45:27.601Z,84.10
2018-12-17T19:47:57.094Z,84.10
2018-12-17T19:50:25.524Z,84.30
2018-12-17T19:52:53.991Z,84.40
2018-12-17T19:55:22.453Z,84.30
2018-12-17T19:57:51.083Z,84.30
2018-12-17T20:00:19.583Z,84.50
2018-12-17T20:02:48.009Z,84.50
2018-12-17T20:05:16.537Z,85.00
2018-12-17T20:07:45.018Z,84.60
2018-12-17T20:10:18.965Z,84.60
2018-12-17T20:12:47.417Z,84.70
2018-12-17T20:15:15.836Z,84.60
2018-12-17T20:17:44.358Z,85.70
2018-12-17T20:20:12.926Z,84.80
2018-12-17T20:22:41.378Z,84.80
2018-12-17T20:25:09.831Z,84.80
2018-12-17T20:27:38.383Z,84.80
2018-12-17T20:30:08.512Z,85.00
2018-12-17T20:32:36.963Z,85.00
2018-12-17T20:35:06.794Z,84.30
2018-12-17T20:37:35.252Z,84.90
2018-12-17T20:40:04.547Z,85.20
2018-12-17T20:42:33.809Z,85.60
2018-12-17T20:45:02.252Z,85.60
2018-12-17T20:47:30.763Z,85.60
2018-12-17T20:49:59.230Z,85.30
2018-12-17T20:52:27.657Z,86.10
2018-12-17T20:54:56.108Z,85.50
2018-12-17T20:57:24.575Z,85.10
2018-12-17T20:59:53.008Z,85.80
2018-12-17T21:02:21.487Z,85.10
2018-12-17T21:04:49.906Z,84.80
2018-12-17T21:07:18.330Z,84.80
2018-12-17T21:09:46.820Z,84.70
2018-12-17T21:12:15.239Z,84.70
2018-12-17T21:14:43.695Z,84.30
2018-12-17T21:17:12.171Z,84.40
2018-12-17T21:19:40.682Z,84.40
2018-12-17T21:22:10.779Z,84.20
2018-12-17T21:24:39.253Z,84.00
2018-12-17T21:27:07.828Z,84.10
2018-12-17T21:29:36.267Z,84.20
2018-12-17T21:32:04.874Z,84.20
2018-12-17T21:34:33.425Z,83.70
2018-12-17T21:37:01.907Z,84.30
2018-12-17T21:39:30.407Z,84.50
2018-12-17T21:41:58.807Z,84.40
2018-12-17T21:44:27.280Z,84.40
2018-12-17T21:46:55.743Z,84.30
2018-12-17T21:49:24.176Z,84.40
2018-12-17T21:51:52.602Z,84.50
2018-12-17T21:54:21.064Z,84.50
2018-12-17T21:56:49.479Z,84.60
2018-12-17T21:59:17.943Z,84.60
2018-12-17T22:01:46.417Z,84.80
2018-12-17T22:04:15.244Z,84.80
2018-12-17T22:06:43.655Z,84.70
2018-12-17T22:09:12.117Z,84.70
2018-12-17T22:11:40.543Z,84.60
2018-12-17T22:14:09.026Z,84.60
2018-12-17T22:16:37.443Z,85.50
2018-12-17T22:19:05.886Z,85.30
2018-12-17T22:21:34.353Z,84.60
2018-12-17T22:24:03.005Z,84.10
2018-12-17T22:26:31.405Z,83.40
2018-12-17T22:28:59.859Z,82.90
2018-12-17T22:31:28.426Z,82.70
2018-12-17T22:33:56.875Z,82.70
2018-12-17T22:36:25.294Z,82.50
2018-12-17T22:38:53.902Z,82.50
2018-12-17T22:41:22.375Z,82.40
2018-12-17T22:43:50.860Z,82.30
2018-12-17T22:46:19.337Z,82.30
2018-12-17T22:48:47.867Z,82.50
2018-12-17T22:51:16.287Z,82.40
2018-12-17T22:53:44.747Z,83.20
2018-12-17T22:56:13.173Z,82.40
2018-12-17T22:58:42.524Z,82.60
2018-12-17T23:01:11.708Z,82.70
2018-12-17T23:03:40.161Z,83.00
2018-12-17T23:06:08.643Z,83.20
2018-12-17T23:08:40.566Z,83.20
2018-12-17T23:11:20.291Z,83.20
2018-12-17T23:14:00.005Z,83.40
2018-12-17T23:16:39.809Z,83.50
2018-12-17T23:19:07.175Z,83.50
2018-12-17T23:21:35.772Z,83.60
2018-12-17T23:24:04.483Z,84.00
2018-12-17T23:26:32.963Z,83.70
2018-12-17T23:29:01.419Z,83.70
2018-12-17T23:31:29.827Z,83.50
2018-12-17T23:33:58.315Z,83.70
2018-12-17T23:36:26.731Z,83.60
2018-12-17T23:38:55.171Z,83.20
2018-12-17T23:41:23.637Z,82.90
2018-12-17T23:43:52.088Z,82.80
2018-12-17T23:46:20.510Z,82.60
2018-12-17T23:48:48.936Z,82.30
2018-12-17T23:51:17.927Z,82.30
2018-12-17T23:53:46.388Z,82.30
2018-12-17T23:56:15.911Z,82.20
2018-12-17T23:58:44.370Z,81.90
